Hlavní strana
METAR-TAF:

METAR-TAF

Letiště :

Erwin, Severní Karolína, Spojené státy americké

zeměpisná šířka: 35-22-43N, zeměpisná délka: 078-44-01W, výška: 60 m

Aktuální stav počasí

Zpráva byla vytvořena před 27 minutami, v 17:55 UTC
Západoseverozápadní vítr 10 kt s nárazy do 15 kt, proměnlivý mezi západojihozápadním a severoseverozápadním
Teplota 9°C
Vlhkost vzduchu 31%
Tlak 1016 hPa
Viditelnost: 16.1 km
Jasno

METAR: KHRJ 271755Z AUTO 29010G15KT 250V330 10SM CLR 09/M07 A3000 RMK AO2 T00941066 10094 20050

Čas: 13:22 (18:22 UTC)


TAF: chybějící

Stav a předpovědi počasí z více než 4 000 letišť (zprávy METAR a TAF).

Červené a žluté tečky na mapě představují dostupné meteorologické stanice.

Když kurzor umístíte na tečku, zobrazí se název stanice.

Pak kliknutím zobrazíte stav a předpověď počasí.

Chcete-li změnit mapu, kliknutím na zelené tlačítko se znaménkem +mapu přiblížíte, kliknutím na zelené tlačítko se znaménkem – mapu oddálíte a kliknutím na zelené šipky přejdete na sousední mapy.


METAR-TAF: